Time;durP1;ratioP1;P1;durP2;ratioP2;P2;SDS_P1;SDS_P2;PMS_P1;PMS_P2;Temp;Humidity;BMP_temperature;BMP_pressure;BME280_temperature;BME280_humidity;BME280_pressure;Samples;Min_cycle;Max_cycle;Signal;HPM_P1;HPM_P2
2022/03/29 00:01:37;;;;;;;29.03;18.80;;;7.10;1.00;;;;;;5092823;28;20201;-75
2022/03/29 00:04:06;;;;;;;29.77;18.57;;;7.00;1.00;;;;;;5094349;28;20201;-75
2022/03/29 00:06:33;;;;;;;31.67;18.10;;;7.00;1.00;;;;;;5093374;28;20636;-75
2022/03/29 00:08:59;;;;;;;29.43;18.00;;;7.00;1.00;;;;;;5093828;28;20206;-75
2022/03/29 00:11:26;;;;;;;29.33;18.37;;;7.00;1.00;;;;;;5094123;28;20571;-75
2022/03/29 00:13:53;;;;;;;32.70;19.87;;;7.10;1.00;;;;;;5093655;28;20201;-75
2022/03/29 00:16:20;;;;;;;32.87;19.17;;;7.00;1.00;;;;;;5093120;28;20208;-75
2022/03/29 00:18:47;;;;;;;33.43;19.87;;;7.00;1.00;;;;;;5093579;28;20660;-75
2022/03/29 00:21:15;;;;;;;31.80;19.93;;;7.10;1.00;;;;;;5093478;28;20190;-75
2022/03/29 00:23:42;;;;;;;31.27;19.17;;;7.00;1.00;;;;;;5093842;28;20209;-75
2022/03/29 00:26:09;;;;;;;34.33;20.27;;;7.00;1.00;;;;;;5093588;28;20202;-75
2022/03/29 00:28:35;;;;;;;33.33;20.10;;;7.00;1.00;;;;;;5092451;28;20194;-76
2022/03/29 00:31:02;;;;;;;31.43;18.53;;;6.90;1.00;;;;;;5093341;28;20194;-75
2022/03/29 00:33:29;;;;;;;32.47;18.57;;;6.90;1.00;;;;;;5092931;28;20217;-76
2022/03/29 00:35:56;;;;;;;29.37;18.27;;;6.80;1.00;;;;;;5092880;28;20581;-76
2022/03/29 00:38:24;;;;;;;32.00;18.67;;;6.90;1.00;;;;;;5092313;28;20591;-76
2022/03/29 00:40:51;;;;;;;28.90;17.67;;;6.90;1.00;;;;;;5094087;28;20209;-76
2022/03/29 00:43:18;;;;;;;31.40;17.83;;;7.00;1.00;;;;;;5092791;28;20201;-76
2022/03/29 00:45:45;;;;;;;30.50;17.77;;;6.80;1.00;;;;;;5092625;28;20201;-76
2022/03/29 00:48:13;;;;;;;29.30;17.83;;;6.80;1.00;;;;;;5092810;28;20201;-76
2022/03/29 00:50:41;;;;;;;30.80;18.03;;;6.80;1.00;;;;;;5092254;28;20225;-75
2022/03/29 00:53:10;;;;;;;32.47;18.33;;;6.90;1.00;;;;;;5092398;28;20678;-75
2022/03/29 00:55:39;;;;;;;32.33;19.03;;;6.90;1.00;;;;;;5093687;28;20194;-75
2022/03/29 00:58:07;;;;;;;32.90;19.33;;;6.90;1.00;;;;;;5092511;28;20217;-75
2022/03/29 01:00:35;;;;;;;35.77;19.60;;;6.90;1.00;;;;;;5091962;28;20240;-75
2022/03/29 01:03:03;;;;;;;34.03;19.77;;;6.80;1.00;;;;;;5092861;28;20202;-75
2022/03/29 01:05:30;;;;;;;34.37;20.27;;;6.90;1.00;;;;;;5091746;28;20206;-75
2022/03/29 01:07:57;;;;;;;36.87;21.00;;;6.90;1.00;;;;;;5092782;28;20576;-76
2022/03/29 01:10:25;;;;;;;37.63;21.90;;;6.70;1.00;;;;;;5093366;28;20488;-76
2022/03/29 01:12:54;;;;;;;36.10;22.03;;;6.80;1.00;;;;;;5092981;28;20207;-76
2022/03/29 01:15:23;;;;;;;39.93;22.97;;;6.80;1.00;;;;;;5092825;28;20211;-76
2022/03/29 01:17:50;;;;;;;38.93;22.17;;;6.80;1.00;;;;;;5092529;28;20214;-76
2022/03/29 01:20:19;;;;;;;39.97;23.30;;;6.80;1.00;;;;;;5092938;28;20208;-76
2022/03/29 01:22:49;;;;;;;39.00;22.43;;;6.80;1.00;;;;;;5092184;28;20204;-75
2022/03/29 01:25:19;;;;;;;39.90;22.80;;;6.80;1.00;;;;;;5093329;28;20676;-77
2022/03/29 01:27:51;;;;;;;41.10;23.07;;;6.80;1.00;;;;;;5092065;28;20204;-76
2022/03/29 01:30:19;;;;;;;40.30;23.53;;;6.80;1.00;;;;;;5092034;28;20201;-76
2022/03/29 01:32:48;;;;;;;41.37;24.83;;;6.80;1.00;;;;;;5092379;28;20828;-76
2022/03/29 01:35:18;;;;;;;42.57;23.43;;;6.80;1.00;;;;;;5091772;28;20200;-77
2022/03/29 01:37:45;;;;;;;39.03;23.47;;;6.70;1.00;;;;;;5090802;28;20209;-76
2022/03/29 01:40:16;;;;;;;38.57;22.90;;;6.80;1.00;;;;;;5092891;28;20228;-76
2022/03/29 01:42:48;;;;;;;42.27;24.73;;;6.80;1.00;;;;;;5092047;28;20278;-76
2022/03/29 01:45:15;;;;;;;40.20;23.80;;;6.70;1.00;;;;;;5091510;28;20186;-76
2022/03/29 01:47:42;;;;;;;41.33;24.20;;;6.70;2.60;;;;;;5092017;28;20193;-76
2022/03/29 01:50:11;;;;;;;40.87;22.13;;;6.60;8.60;;;;;;5092223;28;20197;-76
2022/03/29 01:52:40;;;;;;;41.13;23.47;;;6.70;35.80;;;;;;5080715;28;20285;-75
2022/03/29 01:55:07;;;;;;;38.70;22.93;;;6.70;24.60;;;;;;5092321;28;20296;-75
2022/03/29 01:57:36;;;;;;;46.23;23.80;;;6.70;49.20;;;;;;5091577;28;20221;-76
2022/03/29 02:02:48;;;;;;;40.87;22.67;;;6.70;64.70;;;;;;5090962;28;20563;-76
2022/03/29 02:05:14;;;;;;;41.07;23.10;;;6.70;72.50;;;;;;5091892;28;20208;-76
2022/03/29 02:07:41;;;;;;;39.23;23.20;;;6.80;58.70;;;;;;5090943;28;20199;-76
2022/03/29 02:10:09;;;;;;;41.07;23.90;;;6.70;61.80;;;;;;5091033;28;20281;-76
2022/03/29 02:12:37;;;;;;;40.43;23.13;;;6.70;85.10;;;;;;5091602;28;20194;-76
2022/03/29 02:15:05;;;;;;;43.07;24.93;;;6.70;99.90;;;;;;5092454;28;20216;-76
2022/03/29 02:17:32;;;;;;;41.50;22.73;;;6.80;97.10;;;;;;5091199;28;20224;-76
2022/03/29 02:19:59;;;;;;;43.23;25.03;;;6.90;79.10;;;;;;5092143;28;20193;-75
2022/03/29 02:22:26;;;;;;;43.07;24.83;;;6.90;68.20;;;;;;5090590;28;20223;-76
2022/03/29 02:24:53;;;;;;;44.13;25.23;;;6.90;71.30;;;;;;5092306;28;20205;-76
2022/03/29 02:27:20;;;;;;;41.53;24.77;;;6.80;70.40;;;;;;5091346;28;20246;-75
2022/03/29 02:29:48;;;;;;;43.10;25.40;;;6.80;99.90;;;;;;5091399;28;20201;-76
2022/03/29 02:32:15;;;;;;;39.43;22.70;;;6.80;99.90;;;;;;5091348;28;20551;-76
2022/03/29 02:34:42;;;;;;;42.40;23.87;;;6.90;99.90;;;;;;5091684;28;20644;-76
2022/03/29 02:37:10;;;;;;;40.77;24.00;;;6.90;99.90;;;;;;5091532;28;20208;-76
2022/03/29 02:39:37;;;;;;;40.33;23.53;;;6.90;92.00;;;;;;5091565;28;20664;-76
2022/03/29 02:42:06;;;;;;;43.67;23.40;;;6.90;91.70;;;;;;5087973;28;20367;-76
2022/03/29 02:44:33;;;;;;;40.37;22.67;;;6.90;99.90;;;;;;5097020;28;20197;-76
2022/03/29 02:47:02;;;;;;;44.93;23.17;;;6.90;73.20;;;;;;5092333;28;20233;-76
2022/03/29 02:49:29;;;;;;;35.10;21.67;;;6.90;64.20;;;;;;5090101;28;20564;-76
2022/03/29 02:51:56;;;;;;;36.73;22.10;;;6.80;1.00;;;;;;5090532;28;20186;-76
2022/03/29 02:54:23;;;;;;;38.27;21.20;;;6.70;1.00;;;;;;5091755;28;20212;-77
2022/03/29 02:56:50;;;;;;;40.73;22.50;;;6.70;1.00;;;;;;5090408;28;20684;-77
2022/03/29 02:59:17;;;;;;;39.77;22.63;;;6.60;1.00;;;;;;5090863;28;20221;-76
2022/03/29 03:01:44;;;;;;;41.03;23.80;;;6.60;1.00;;;;;;5090354;28;20193;-76
2022/03/29 03:04:13;;;;;;;44.73;25.17;;;6.60;1.00;;;;;;5090783;28;20201;-76
2022/03/29 03:06:40;;;;;;;44.03;25.47;;;6.60;1.00;;;;;;5090658;28;20202;-76
2022/03/29 03:09:07;;;;;;;45.03;24.80;;;6.60;1.00;;;;;;5091236;28;20538;-76
2022/03/29 03:11:35;;;;;;;44.87;26.03;;;6.70;1.00;;;;;;5091665;28;20193;-76
2022/03/29 03:14:01;;;;;;;45.37;25.57;;;6.70;1.00;;;;;;5093916;28;20201;-76
2022/03/29 03:16:28;;;;;;;44.77;26.63;;;6.70;1.00;;;;;;5095610;28;20196;-76
2022/03/29 03:18:55;;;;;;;42.60;24.23;;;6.80;1.00;;;;;;5093515;28;20296;-76
2022/03/29 03:21:24;;;;;;;39.97;24.37;;;6.70;1.00;;;;;;5095940;28;20229;-76
2022/03/29 03:23:51;;;;;;;40.97;24.40;;;6.80;1.00;;;;;;5096199;28;20213;-77
2022/03/29 03:26:17;;;;;;;43.10;24.27;;;6.90;1.00;;;;;;5096232;28;20190;-76
2022/03/29 03:28:44;;;;;;;41.90;25.40;;;6.70;1.00;;;;;;5095325;28;20293;-77
2022/03/29 03:31:11;;;;;;;44.37;28.57;;;6.70;1.00;;;;;;5095489;28;20208;-77
2022/03/29 03:33:38;;;;;;;42.03;24.97;;;6.80;1.00;;;;;;5095484;28;20216;-77
2022/03/29 03:36:05;;;;;;;41.40;24.30;;;6.80;1.00;;;;;;5095517;28;20202;-77
2022/03/29 03:38:35;;;;;;;43.23;23.93;;;6.90;1.00;;;;;;5095010;28;20226;-76
2022/03/29 03:41:02;;;;;;;37.53;22.20;;;6.80;1.00;;;;;;5095363;28;20292;-76
2022/03/29 03:43:29;;;;;;;39.03;21.93;;;6.80;99.90;;;;;;5095385;28;20717;-76
2022/03/29 03:45:55;;;;;;;40.03;22.97;;;6.80;99.90;;;;;;5095252;28;20285;-77
2022/03/29 03:48:23;;;;;;;41.47;22.50;;;6.80;99.90;;;;;;5094983;28;20197;-77
2022/03/29 03:50:50;;;;;;;42.13;23.23;;;6.80;95.70;;;;;;5095148;28;20205;-77
2022/03/29 03:53:17;;;;;;;41.80;23.27;;;6.80;99.90;;;;;;5095300;28;20716;-77
2022/03/29 03:55:45;;;;;;;39.10;22.80;;;6.80;1.00;;;;;;5095197;28;20212;-77
2022/03/29 03:58:13;;;;;;;43.63;24.80;;;6.80;60.30;;;;;;5094574;28;20237;-76
2022/03/29 04:00:40;;;;;;;40.90;23.67;;;6.80;77.00;;;;;;5094900;28;20211;-76
2022/03/29 04:03:09;;;;;;;43.37;24.33;;;6.90;57.20;;;;;;5095092;28;20198;-76
2022/03/29 04:05:36;;;;;;;44.97;26.00;;;6.90;81.70;;;;;;5095084;28;20243;-76
2022/03/29 04:08:03;;;;;;;45.93;24.20;;;6.90;99.90;;;;;;5094435;28;20193;-76
2022/03/29 04:10:29;;;;;;;43.47;25.53;;;6.80;1.00;;;;;;5094794;28;20201;-76
2022/03/29 04:12:58;;;;;;;43.13;25.60;;;6.80;1.00;;;;;;5094512;28;20202;-77
2022/03/29 04:15:25;;;;;;;43.27;24.90;;;6.80;18.90;;;;;;5094981;28;20204;-76
2022/03/29 04:17:51;;;;;;;44.33;25.33;;;6.90;1.00;;;;;;5093919;28;20232;-76
2022/03/29 04:20:19;;;;;;;42.17;24.57;;;6.90;1.00;;;;;;5094660;28;20197;-76
2022/03/29 04:22:45;;;;;;;46.70;26.27;;;7.00;1.00;;;;;;5093892;28;20200;-76
2022/03/29 04:25:12;;;;;;;46.67;25.63;;;7.00;1.00;;;;;;5094435;28;20197;-75
2022/03/29 04:27:39;;;;;;;46.00;26.03;;;6.90;1.00;;;;;;5093850;28;20741;-76
2022/03/29 04:30:10;;;;;;;44.87;26.90;;;7.00;1.00;;;;;;5094640;28;20223;-76
2022/03/29 04:32:37;;;;;;;42.47;26.83;;;7.00;1.00;;;;;;5092455;28;20206;-75
2022/03/29 04:35:05;;;;;;;45.30;26.07;;;6.90;1.00;;;;;;5092095;28;20201;-74
2022/03/29 04:37:32;;;;;;;44.83;24.93;;;7.00;1.00;;;;;;5092914;28;20205;-74
2022/03/29 04:39:59;;;;;;;44.43;25.97;;;7.00;25.90;;;;;;5092906;28;20198;-74
2022/03/29 04:42:25;;;;;;;47.07;27.83;;;7.00;99.90;;;;;;5093145;28;20201;-74
2022/03/29 04:44:52;;;;;;;45.00;26.37;;;7.00;1.00;;;;;;5093823;28;20197;-74
2022/03/29 04:47:20;;;;;;;46.10;27.53;;;7.00;1.00;;;;;;5093853;28;20229;-75
2022/03/29 04:49:47;;;;;;;46.47;27.57;;;7.00;1.00;;;;;;5093438;28;20200;-75
2022/03/29 04:52:14;;;;;;;46.17;26.83;;;7.00;1.00;;;;;;5092860;28;20409;-75
2022/03/29 04:54:41;;;;;;;49.20;27.43;;;7.00;1.00;;;;;;5093052;28;20711;-75
2022/03/29 04:57:08;;;;;;;43.57;25.60;;;7.00;1.00;;;;;;5093008;28;20205;-74
2022/03/29 04:59:35;;;;;;;46.53;27.80;;;7.00;1.00;;;;;;5092602;28;20228;-75
2022/03/29 05:02:02;;;;;;;46.63;26.90;;;6.90;1.00;;;;;;5093129;28;20305;-74
2022/03/29 05:04:30;;;;;;;50.23;29.10;;;6.80;1.00;;;;;;5092649;28;20210;-75
2022/03/29 05:06:57;;;;;;;47.57;27.90;;;6.90;1.00;;;;;;5093717;28;20210;-75
2022/03/29 05:09:23;;;;;;;44.70;26.93;;;6.80;1.00;;;;;;5092926;28;20217;-75
2022/03/29 05:11:50;;;;;;;44.40;25.83;;;6.80;1.00;;;;;;5092506;28;20202;-75
2022/03/29 05:14:17;;;;;;;45.80;27.13;;;6.80;1.00;;;;;;5093082;28;20702;-74
2022/03/29 05:16:44;;;;;;;44.33;25.13;;;6.80;1.00;;;;;;5093366;28;20202;-74
2022/03/29 05:19:11;;;;;;;43.60;26.33;;;6.90;1.00;;;;;;5093007;28;20310;-75
2022/03/29 05:21:39;;;;;;;42.87;24.70;;;6.80;1.00;;;;;;5091942;28;20513;-74
2022/03/29 05:24:06;;;;;;;37.73;22.77;;;6.70;1.00;;;;;;5093159;28;20210;-75
2022/03/29 05:26:33;;;;;;;39.80;23.77;;;6.80;1.00;;;;;;5092815;28;20210;-74
2022/03/29 05:29:02;;;;;;;40.43;22.83;;;6.80;1.00;;;;;;5091837;28;20200;-75
2022/03/29 05:31:29;;;;;;;42.47;24.30;;;6.70;1.00;;;;;;5092317;28;20285;-75
2022/03/29 05:33:56;;;;;;;36.03;22.47;;;6.70;1.00;;;;;;5091556;28;20201;-75
2022/03/29 05:36:24;;;;;;;40.10;22.97;;;6.80;1.00;;;;;;5092274;28;20581;-75
2022/03/29 05:38:52;;;;;;;37.03;22.07;;;6.70;1.00;;;;;;5091020;28;20263;-74
2022/03/29 05:41:20;;;;;;;38.20;21.77;;;6.70;1.00;;;;;;5092252;28;20241;-75
2022/03/29 05:43:48;;;;;;;37.67;22.80;;;6.70;1.00;;;;;;5093432;28;20620;-75
2022/03/29 05:49:00;;;;;;;39.00;22.50;;;6.80;1.00;;;;;;5091414;28;20220;-74
2022/03/29 05:51:29;;;;;;;36.93;20.97;;;6.80;1.00;;;;;;5092125;28;20212;-75
2022/03/29 05:53:58;;;;;;;36.27;20.83;;;6.90;1.00;;;;;;5092206;28;20211;-74
2022/03/29 05:56:25;;;;;;;36.97;22.67;;;6.90;1.00;;;;;;5092007;28;20205;-74
2022/03/29 05:58:53;;;;;;;39.33;23.67;;;6.90;1.00;;;;;;5092009;28;20243;-74
2022/03/29 06:01:20;;;;;;;36.87;20.77;;;6.80;1.00;;;;;;5092207;28;20206;-74
2022/03/29 06:03:46;;;;;;;38.33;22.17;;;6.90;1.00;;;;;;5092151;28;20211;-75
2022/03/29 06:06:14;;;;;;;38.63;21.73;;;6.80;1.00;;;;;;5091193;28;20660;-74
2022/03/29 06:08:41;;;;;;;40.50;23.60;;;6.90;1.00;;;;;;5091485;28;20202;-75
2022/03/29 06:11:10;;;;;;;35.33;20.97;;;6.90;1.00;;;;;;5091859;28;20203;-74
2022/03/29 06:13:37;;;;;;;40.43;22.33;;;6.80;1.00;;;;;;5091621;28;20576;-75
2022/03/29 06:16:05;;;;;;;40.10;22.57;;;6.80;1.00;;;;;;5092371;28;20205;-74
2022/03/29 06:18:33;;;;;;;42.27;23.20;;;6.80;1.00;;;;;;5091675;28;20227;-76
2022/03/29 06:21:00;;;;;;;45.40;25.43;;;6.70;1.00;;;;;;5091315;28;20285;-75
2022/03/29 06:23:27;;;;;;;43.73;23.13;;;6.80;99.90;;;;;;5092017;28;20245;-74
2022/03/29 06:25:55;;;;;;;43.10;24.67;;;6.80;99.90;;;;;;5092122;28;20206;-76
2022/03/29 06:28:23;;;;;;;49.63;26.27;;;6.80;99.90;;;;;;5091448;28;20555;-74
2022/03/29 06:30:50;;;;;;;48.03;24.83;;;6.70;99.90;;;;;;5092341;28;20660;-76
2022/03/29 06:33:20;;;;;;;47.80;25.50;;;6.70;97.30;;;;;;5091921;28;20607;-76
2022/03/29 06:35:47;;;;;;;45.43;25.60;;;6.80;1.00;;;;;;5091978;28;20208;-76
2022/03/29 06:38:15;;;;;;;46.33;24.63;;;6.80;1.00;;;;;;5090933;28;20683;-76
2022/03/29 06:40:42;;;;;;;42.50;23.70;;;6.80;1.00;;;;;;5089831;28;20721;-76
2022/03/29 06:43:09;;;;;;;44.37;25.87;;;6.80;1.00;;;;;;5085664;28;20655;-76
2022/03/29 06:45:37;;;;;;;42.17;23.10;;;6.80;1.00;;;;;;5085621;28;20206;-76
2022/03/29 06:48:05;;;;;;;45.80;23.83;;;6.90;1.00;;;;;;5098721;28;20221;-76
2022/03/29 06:50:32;;;;;;;42.23;22.67;;;6.90;1.00;;;;;;5106971;28;20190;-76
2022/03/29 06:53:00;;;;;;;42.23;23.20;;;6.90;1.00;;;;;;5095465;28;20247;-76
2022/03/29 06:55:28;;;;;;;40.00;22.70;;;6.80;1.00;;;;;;5094748;28;20251;-76
2022/03/29 06:57:55;;;;;;;37.80;22.50;;;6.80;1.00;;;;;;5094993;28;20212;-75
2022/03/29 07:00:22;;;;;;;42.80;21.83;;;6.80;1.00;;;;;;5096308;28;20274;-76
2022/03/29 07:02:51;;;;;;;39.77;21.63;;;6.90;1.00;;;;;;5095969;28;20667;-77
2022/03/29 07:05:19;;;;;;;40.00;22.23;;;6.90;1.00;;;;;;5095948;28;20201;-76
2022/03/29 07:07:46;;;;;;;41.07;21.97;;;7.00;1.00;;;;;;5094657;28;20633;-76
2022/03/29 07:13:00;;;;;;;40.20;23.47;;;7.10;99.90;;;;;;5094333;28;20193;-76
2022/03/29 07:15:28;;;;;;;43.40;23.50;;;7.10;99.90;;;;;;5094675;28;20209;-76
2022/03/29 07:17:57;;;;;;;41.80;23.10;;;7.00;53.90;;;;;;5095156;28;20236;-76
2022/03/29 07:20:24;;;;;;;37.90;22.20;;;7.10;99.90;;;;;;5095595;28;20312;-76
2022/03/29 07:22:52;;;;;;;40.37;22.13;;;7.20;99.90;;;;;;5094603;28;20201;-77
2022/03/29 07:25:21;;;;;;;37.33;21.97;;;7.10;26.70;;;;;;5095890;28;20197;-76
2022/03/29 07:27:49;;;;;;;37.57;21.83;;;7.20;1.00;;;;;;5094117;28;20660;-76
2022/03/29 07:30:16;;;;;;;39.90;22.43;;;7.20;1.00;;;;;;5095245;28;20202;-76
2022/03/29 07:32:45;;;;;;;43.90;24.10;;;7.30;1.00;;;;;;5094654;28;20243;-77
2022/03/29 07:35:14;;;;;;;44.87;23.57;;;7.40;1.00;;;;;;5095347;28;20576;-76
2022/03/29 07:37:42;;;;;;;44.80;24.07;;;7.50;1.00;;;;;;5094031;28;20201;-77
2022/03/29 07:40:11;;;;;;;42.50;23.07;;;7.40;1.00;;;;;;5094076;28;20229;-76
2022/03/29 07:42:38;;;;;;;40.00;23.10;;;7.50;1.00;;;;;;5094017;28;20577;-76
2022/03/29 07:45:06;;;;;;;44.33;21.93;;;7.40;99.90;;;;;;5095296;28;20659;-77
2022/03/29 07:47:34;;;;;;;42.40;22.80;;;7.50;99.90;;;;;;5094693;28;20213;-77
2022/03/29 07:50:01;;;;;;;41.67;24.13;;;7.50;74.40;;;;;;5095067;28;20209;-77
2022/03/29 07:52:30;;;;;;;45.27;24.27;;;7.40;93.40;;;;;;5094445;28;20213;-76
2022/03/29 07:54:56;;;;;;;44.60;24.53;;;7.40;99.90;;;;;;5093861;28;20225;-77
2022/03/29 07:57:24;;;;;;;42.17;24.60;;;7.60;1.00;;;;;;5094364;28;20216;-77
2022/03/29 07:59:51;;;;;;;44.57;25.53;;;7.50;1.00;;;;;;5093834;28;20312;-77
2022/03/29 08:02:18;;;;;;;47.63;25.23;;;7.50;1.00;;;;;;5094021;28;20641;-75
2022/03/29 08:04:45;;;;;;;47.13;24.77;;;7.40;1.00;;;;;;5094956;28;20202;-77
2022/03/29 08:07:12;;;;;;;44.37;24.40;;;7.40;92.30;;;;;;5094323;28;20241;-76
2022/03/29 08:09:40;;;;;;;49.27;26.50;;;7.50;1.00;;;;;;5094555;28;20197;-77
2022/03/29 08:12:08;;;;;;;45.97;26.03;;;7.60;73.80;;;;;;5094064;28;20580;-76
2022/03/29 08:14:35;;;;;;;45.73;26.97;;;7.80;1.00;;;;;;5093403;28;20213;-77
2022/03/29 08:17:02;;;;;;;46.50;25.30;;;7.70;1.00;;;;;;5094970;28;20209;-76
2022/03/29 08:19:29;;;;;;;43.63;24.93;;;7.80;1.00;;;;;;5093577;28;20212;-77
2022/03/29 08:21:56;;;;;;;44.63;25.27;;;7.70;99.90;;;;;;5093845;28;20294;-77
2022/03/29 08:24:24;;;;;;;44.10;24.93;;;7.70;99.90;;;;;;5094260;28;20210;-77
2022/03/29 08:26:54;;;;;;;42.93;23.80;;;7.80;99.90;;;;;;5094030;28;20213;-77
2022/03/29 08:29:22;;;;;;;48.87;24.83;;;7.70;1.00;;;;;;5093587;28;20305;-77
2022/03/29 08:31:52;;;;;;;45.40;25.67;;;7.80;1.00;;;;;;5094151;28;20209;-77
2022/03/29 08:34:19;;;;;;;45.90;25.37;;;7.80;1.00;;;;;;5094180;28;20556;-77
2022/03/29 08:36:49;;;;;;;44.60;24.83;;;7.70;99.90;;;;;;5094028;28;20686;-77
2022/03/29 08:39:16;;;;;;;45.47;24.77;;;7.80;1.00;;;;;;5093069;28;20236;-77
2022/03/29 08:41:47;;;;;;;45.23;25.27;;;7.80;99.90;;;;;;5093902;28;20682;-77
2022/03/29 08:44:15;;;;;;;40.97;23.63;;;7.80;95.90;;;;;;5093419;28;20209;-77
2022/03/29 08:46:42;;;;;;;45.93;26.07;;;7.80;5.80;;;;;;5093650;28;20201;-77
2022/03/29 08:49:10;;;;;;;42.83;24.30;;;7.80;1.00;;;;;;5092233;28;20205;-77
2022/03/29 08:51:39;;;;;;;47.60;26.03;;;7.70;1.00;;;;;;5092728;28;20319;-76
2022/03/29 08:54:07;;;;;;;49.37;27.13;;;7.70;1.00;;;;;;5093998;28;20205;-76
2022/03/29 08:56:34;;;;;;;47.53;26.70;;;7.70;78.00;;;;;;5093465;28;20237;-76
2022/03/29 08:59:01;;;;;;;49.00;27.90;;;7.80;30.30;;;;;;5092344;28;20212;-77
2022/03/29 09:01:29;;;;;;;49.23;26.97;;;7.70;99.90;;;;;;5093753;28;20568;-76
2022/03/29 09:04:10;;;;;;;47.97;26.53;;;7.80;1.00;;;;;;5093040;28;20233;-76
2022/03/29 09:06:56;;;;;;;45.13;27.60;;;7.90;1.00;;;;;;5092724;28;20209;-76
2022/03/29 09:09:24;;;;;;;46.97;26.40;;;7.90;1.00;;;;;;5092972;28;20202;-76
2022/03/29 09:11:53;;;;;;;49.20;28.33;;;8.00;1.00;;;;;;5091844;28;20206;-76
2022/03/29 09:14:21;;;;;;;51.47;28.00;;;8.00;1.00;;;;;;5092312;28;20208;-77
2022/03/29 09:16:51;;;;;;;53.13;27.73;;;8.20;1.00;;;;;;5092762;28;20255;-76
2022/03/29 09:19:19;;;;;;;53.80;28.80;;;8.10;1.00;;;;;;5091687;28;20640;-77
2022/03/29 09:21:46;;;;;;;53.73;27.43;;;8.00;99.90;;;;;;5092024;28;20201;-76
2022/03/29 09:24:16;;;;;;;52.87;30.23;;;8.20;1.00;;;;;;5093652;28;20663;-77
2022/03/29 09:26:44;;;;;;;55.57;29.33;;;8.40;99.90;;;;;;5092958;28;20205;-77
2022/03/29 09:29:16;;;;;;;51.67;29.00;;;8.70;1.00;;;;;;5091775;28;20205;-76
2022/03/29 09:31:44;;;;;;;46.33;27.47;;;8.80;1.00;;;;;;5092216;28;20568;-77
2022/03/29 09:34:14;;;;;;;47.70;27.30;;;8.80;1.00;;;;;;5092096;28;20212;-77
2022/03/29 09:36:43;;;;;;;48.70;26.63;;;8.90;99.90;;;;;;5091484;28;20198;-77
2022/03/29 09:39:29;;;;;;;46.20;26.70;;;8.70;99.90;;;;;;5091865;28;20308;-77
2022/03/29 09:41:59;;;;;;;46.20;26.67;;;8.70;99.90;;;;;;5092423;28;20205;-77
2022/03/29 09:44:35;;;;;;;42.57;24.83;;;8.70;99.90;;;;;;5092656;28;20605;-76
2022/03/29 09:47:04;;;;;;;44.27;25.23;;;8.70;1.00;;;;;;5092793;28;20258;-76
2022/03/29 09:49:53;;;;;;;46.77;25.27;;;8.70;99.90;;;;;;5092314;28;20220;-77
2022/03/29 09:52:21;;;;;;;40.97;23.37;;;8.80;1.00;;;;;;5091778;28;20201;-77
2022/03/29 09:55:13;;;;;;;41.50;23.33;;;9.00;1.00;;;;;;5091541;28;20225;-77
2022/03/29 09:57:43;;;;;;;39.23;22.20;;;9.00;1.00;;;;;;5091413;28;20209;-76
2022/03/29 10:00:13;;;;;;;41.40;25.87;;;9.00;1.00;;;;;;5092980;28;20218;-77
2022/03/29 10:02:41;;;;;;;40.37;23.13;;;9.10;99.90;;;;;;5092699;28;20217;-77
2022/03/29 10:05:11;;;;;;;41.30;23.43;;;9.10;1.00;;;;;;5091792;28;20213;-77
2022/03/29 10:07:43;;;;;;;44.07;24.53;;;9.00;1.00;;;;;;5091292;28;20210;-76
2022/03/29 10:10:10;;;;;;;37.43;23.80;;;9.30;1.00;;;;;;5092507;28;20274;-77
2022/03/29 10:12:38;;;;;;;38.93;22.17;;;9.40;1.00;;;;;;5091235;28;20220;-77
2022/03/29 10:15:06;;;;;;;38.23;22.87;;;9.70;1.00;;;;;;5091954;28;20216;-76
2022/03/29 10:17:34;;;;;;;40.63;23.37;;;9.80;1.00;;;;;;5092206;28;20197;-76
2022/03/29 10:20:01;;;;;;;41.17;22.60;;;9.90;99.90;;;;;;5092488;28;20230;-76
2022/03/29 10:22:30;;;;;;;39.00;24.00;;;10.00;99.90;;;;;;5091486;28;20229;-76
2022/03/29 10:24:56;;;;;;;35.93;21.33;;;10.00;68.80;;;;;;5091878;28;20235;-76
2022/03/29 10:27:24;;;;;;;37.30;22.60;;;10.10;99.90;;;;;;5092661;28;20675;-76
2022/03/29 10:29:51;;;;;;;40.40;22.50;;;10.20;99.90;;;;;;5091056;28;20205;-76
2022/03/29 10:32:35;;;;;;;34.73;20.90;;;10.30;99.90;;;;;;5092177;28;20206;-75
2022/03/29 10:35:07;;;;;;;36.90;21.07;;;10.30;99.90;;;;;;5091898;28;20208;-76
2022/03/29 10:37:54;;;;;;;36.60;21.90;;;10.20;99.90;;;;;;5092404;28;20205;-76
2022/03/29 10:40:36;;;;;;;40.27;21.60;;;10.50;99.90;;;;;;5094053;28;20740;-76
2022/03/29 10:43:29;;;;;;;38.40;21.30;;;10.60;36.70;;;;;;5092185;28;20212;-76
2022/03/29 10:45:55;;;;;;;37.20;21.50;;;10.70;1.00;;;;;;5087001;28;20212;-76
2022/03/29 10:48:22;;;;;;;39.30;22.30;;;10.80;1.00;;;;;;5091247;28;20816;-76
2022/03/29 10:50:57;;;;;;;33.87;20.47;;;11.00;1.00;;;;;;5090860;28;20212;-76
2022/03/29 10:53:27;;;;;;;33.10;20.67;;;11.20;1.00;;;;;;5091340;28;20212;-76
2022/03/29 10:56:15;;;;;;;37.73;21.87;;;11.30;99.90;;;;;;5091878;28;20193;-76
2022/03/29 10:59:12;;;;;;;39.30;22.73;;;11.40;1.00;;;;;;5091146;28;20205;-76
2022/03/29 11:01:42;;;;;;;41.03;24.40;;;11.30;99.90;;;;;;5090915;28;20274;-76
2022/03/29 11:04:16;;;;;;;40.00;24.23;;;11.40;99.90;;;;;;5092066;28;20546;-76
2022/03/29 11:07:11;;;;;;;39.83;23.43;;;11.30;99.90;;;;;;5091105;28;20734;-75
2022/03/29 11:09:40;;;;;;;37.70;23.33;;;11.30;99.90;;;;;;5087490;28;20194;-75
2022/03/29 11:12:28;;;;;;;41.23;25.13;;;11.50;99.90;;;;;;5086651;28;20675;-76
2022/03/29 11:14:56;;;;;;;40.30;24.90;;;11.60;99.90;;;;;;5086418;28;20208;-75
2022/03/29 11:17:41;;;;;;;39.10;24.97;;;11.50;99.90;;;;;;5090366;28;20194;-75
2022/03/29 11:20:30;;;;;;;39.97;24.00;;;11.50;1.00;;;;;;5088903;28;20286;-76
2022/03/29 11:23:00;;;;;;;40.60;24.87;;;12.20;1.00;;;;;;5095476;28;20202;-73
2022/03/29 11:25:29;;;;;;;42.10;25.97;;;11.90;1.00;;;;;;5090689;28;20254;-73
2022/03/29 11:28:06;;;;;;;42.43;25.73;;;11.30;1.00;;;;;;5088985;28;20216;-73
2022/03/29 11:30:35;;;;;;;40.30;26.17;;;11.60;87.60;;;;;;5090999;28;20710;-74
2022/03/29 11:33:04;;;;;;;41.37;26.23;;;11.90;1.00;;;;;;5091271;28;20206;-73
2022/03/29 11:35:31;;;;;;;41.10;24.00;;;12.10;1.00;;;;;;5093339;28;20210;-73
2022/03/29 11:38:08;;;;;;;39.33;24.63;;;12.30;1.00;;;;;;5094936;28;20210;-73
2022/03/29 11:40:37;;;;;;;37.57;24.13;;;11.70;1.00;;;;;;5094700;28;20229;-73
2022/03/29 11:43:05;;;;;;;38.03;23.20;;;11.70;1.00;;;;;;5093557;28;20308;-73
2022/03/29 11:45:39;;;;;;;35.03;23.37;;;11.90;1.00;;;;;;5094656;28;20206;-73
2022/03/29 11:48:11;;;;;;;37.47;22.13;;;12.00;1.00;;;;;;5092971;28;20216;-73
2022/03/29 11:50:39;;;;;;;36.43;21.33;;;12.30;1.00;;;;;;5093880;28;20211;-73
2022/03/29 11:53:17;;;;;;;31.23;19.43;;;12.30;1.00;;;;;;5095069;28;20238;-73
2022/03/29 11:55:54;;;;;;;33.70;21.23;;;12.70;1.00;;;;;;5094762;28;20201;-73
2022/03/29 11:58:22;;;;;;;35.20;20.90;;;12.30;1.00;;;;;;5094294;28;20660;-73
2022/03/29 12:00:49;;;;;;;38.83;21.63;;;12.30;1.00;;;;;;5094595;28;20762;-73
2022/03/29 12:03:31;;;;;;;37.23;20.60;;;12.60;99.90;;;;;;5094678;28;20692;-73
2022/03/29 12:06:09;;;;;;;34.03;20.33;;;12.50;99.90;;;;;;5094381;28;20729;-75
2022/03/29 12:08:47;;;;;;;32.60;20.30;;;12.70;1.00;;;;;;5094362;28;20736;-72
2022/03/29 12:11:16;;;;;;;30.13;20.20;;;13.00;99.90;;;;;;5094528;28;20197;-73
2022/03/29 12:13:45;;;;;;;34.70;21.77;;;13.10;99.90;;;;;;5094566;28;20221;-73
2022/03/29 12:16:20;;;;;;;30.47;18.93;;;13.30;99.90;;;;;;5094685;28;20205;-73
2022/03/29 12:18:47;;;;;;;31.67;18.93;;;13.20;99.90;;;;;;5093816;28;20561;-73
2022/03/29 12:21:15;;;;;;;31.40;20.30;;;12.90;99.90;;;;;;5094007;28;20221;-73
2022/03/29 12:23:43;;;;;;;33.53;20.00;;;12.60;99.90;;;;;;5093079;28;20213;-73
2022/03/29 12:26:11;;;;;;;33.00;19.97;;;12.40;99.90;;;;;;5092894;28;20615;-73
2022/03/29 12:28:41;;;;;;;31.40;18.70;;;12.60;99.90;;;;;;5092581;28;20206;-74
2022/03/29 12:31:13;;;;;;;33.77;20.90;;;13.20;99.90;;;;;;5093403;28;20455;-73
2022/03/29 12:33:41;;;;;;;33.73;21.27;;;12.90;99.90;;;;;;5092960;28;20205;-73
2022/03/29 12:36:10;;;;;;;32.23;19.93;;;12.90;99.90;;;;;;5092753;28;20205;-73
2022/03/29 12:38:41;;;;;;;32.27;20.13;;;13.20;58.70;;;;;;5092774;28;20288;-73
2022/03/29 12:41:11;;;;;;;31.20;19.13;;;13.30;1.00;;;;;;5093581;28;20221;-74
2022/03/29 12:43:39;;;;;;;30.20;19.70;;;13.50;85.40;;;;;;5091688;28;20628;-73
2022/03/29 12:46:12;;;;;;;27.47;18.93;;;13.70;1.00;;;;;;5093070;28;20206;-73
2022/03/29 12:48:41;;;;;;;29.57;18.73;;;13.50;60.70;;;;;;5091742;28;20197;-73
2022/03/29 12:51:08;;;;;;;30.77;19.37;;;13.40;76.40;;;;;;5093085;28;20625;-73
2022/03/29 12:53:35;;;;;;;28.93;18.17;;;13.50;1.00;;;;;;5093280;28;20201;-73
2022/03/29 12:56:09;;;;;;;30.07;19.43;;;13.50;1.00;;;;;;5092652;28;20216;-74
2022/03/29 12:58:39;;;;;;;30.47;19.60;;;13.40;1.00;;;;;;5073560;28;20244;-73